sensor_id;sensor_type;location;lat;lon;timestamp;P1;durP1;ratioP1;P2;durP2;ratioP2
69319;SDS011;56467;53.502;49.248;2023-11-21T00:02:21;11.38;;;5.78;;
69319;SDS011;56467;53.502;49.248;2023-11-21T00:04:47;12.48;;;5.72;;
69319;SDS011;56467;53.502;49.248;2023-11-21T00:07:13;10.77;;;5.57;;
69319;SDS011;56467;53.502;49.248;2023-11-21T00:09:40;10.15;;;5.55;;
69319;SDS011;56467;53.502;49.248;2023-11-21T00:12:06;11.68;;;5.97;;
69319;SDS011;56467;53.502;49.248;2023-11-21T00:14:37;11.52;;;5.82;;
69319;SDS011;56467;53.502;49.248;2023-11-21T00:17:03;10.02;;;5.55;;
69319;SDS011;56467;53.502;49.248;2023-11-21T00:19:30;10.00;;;5.43;;
69319;SDS011;56467;53.502;49.248;2023-11-21T00:21:56;11.55;;;5.30;;
69319;SDS011;56467;53.502;49.248;2023-11-21T00:24:23;10.38;;;5.53;;
69319;SDS011;56467;53.502;49.248;2023-11-21T00:26:50;11.50;;;5.60;;
69319;SDS011;56467;53.502;49.248;2023-11-21T00:29:15;10.98;;;5.90;;
69319;SDS011;56467;53.502;49.248;2023-11-21T00:31:43;10.63;;;5.38;;
69319;SDS011;56467;53.502;49.248;2023-11-21T00:34:09;11.55;;;5.68;;
69319;SDS011;56467;53.502;49.248;2023-11-21T00:36:36;11.00;;;5.55;;
69319;SDS011;56467;53.502;49.248;2023-11-21T00:39:01;9.75;;;5.43;;
69319;SDS011;56467;53.502;49.248;2023-11-21T00:41:27;9.13;;;5.28;;
69319;SDS011;56467;53.502;49.248;2023-11-21T00:43:53;9.35;;;5.00;;
69319;SDS011;56467;53.502;49.248;2023-11-21T00:46:20;12.55;;;6.30;;
69319;SDS011;56467;53.502;49.248;2023-11-21T00:48:46;11.20;;;5.60;;
69319;SDS011;56467;53.502;49.248;2023-11-21T00:51:11;9.60;;;5.30;;
69319;SDS011;56467;53.502;49.248;2023-11-21T00:53:37;10.77;;;5.63;;
69319;SDS011;56467;53.502;49.248;2023-11-21T00:56:03;11.52;;;5.82;;
69319;SDS011;56467;53.502;49.248;2023-11-21T00:58:29;9.55;;;5.30;;
69319;SDS011;56467;53.502;49.248;2023-11-21T01:00:55;10.63;;;5.32;;
69319;SDS011;56467;53.502;49.248;2023-11-21T01:03:21;10.70;;;5.60;;
69319;SDS011;56467;53.502;49.248;2023-11-21T01:05:47;11.68;;;5.65;;
69319;SDS011;56467;53.502;49.248;2023-11-21T01:08:15;11.23;;;5.47;;
69319;SDS011;56467;53.502;49.248;2023-11-21T01:10:41;11.40;;;5.43;;
69319;SDS011;56467;53.502;49.248;2023-11-21T01:13:06;9.70;;;4.97;;
69319;SDS011;56467;53.502;49.248;2023-11-21T01:15:32;11.18;;;5.63;;
69319;SDS011;56467;53.502;49.248;2023-11-21T01:17:59;10.65;;;5.45;;
69319;SDS011;56467;53.502;49.248;2023-11-21T01:20:25;9.45;;;4.90;;
69319;SDS011;56467;53.502;49.248;2023-11-21T01:22:51;11.43;;;5.70;;
69319;SDS011;56467;53.502;49.248;2023-11-21T01:25:18;10.73;;;5.15;;
69319;SDS011;56467;53.502;49.248;2023-11-21T01:27:44;10.25;;;5.40;;
69319;SDS011;56467;53.502;49.248;2023-11-21T01:30:10;9.57;;;4.70;;
69319;SDS011;56467;53.502;49.248;2023-11-21T01:32:36;9.50;;;5.20;;
69319;SDS011;56467;53.502;49.248;2023-11-21T01:35:02;9.25;;;4.63;;
69319;SDS011;56467;53.502;49.248;2023-11-21T01:37:30;10.68;;;5.05;;
69319;SDS011;56467;53.502;49.248;2023-11-21T01:39:56;9.25;;;4.75;;
69319;SDS011;56467;53.502;49.248;2023-11-21T01:42:22;10.68;;;5.00;;
69319;SDS011;56467;53.502;49.248;2023-11-21T01:44:47;9.25;;;4.60;;
69319;SDS011;56467;53.502;49.248;2023-11-21T01:47:14;8.57;;;4.47;;
69319;SDS011;56467;53.502;49.248;2023-11-21T01:49:41;9.73;;;4.90;;
69319;SDS011;56467;53.502;49.248;2023-11-21T01:52:09;10.00;;;4.70;;
69319;SDS011;56467;53.502;49.248;2023-11-21T01:54:36;8.60;;;4.50;;
69319;SDS011;56467;53.502;49.248;2023-11-21T01:57:03;8.77;;;4.55;;
69319;SDS011;56467;53.502;49.248;2023-11-21T01:59:35;9.48;;;4.60;;
69319;SDS011;56467;53.502;49.248;2023-11-21T02:02:07;7.45;;;4.28;;
69319;SDS011;56467;53.502;49.248;2023-11-21T02:04:34;7.63;;;4.03;;
69319;SDS011;56467;53.502;49.248;2023-11-21T02:07:04;7.82;;;4.03;;
69319;SDS011;56467;53.502;49.248;2023-11-21T02:09:33;7.38;;;4.20;;
69319;SDS011;56467;53.502;49.248;2023-11-21T02:11:59;7.80;;;4.20;;
69319;SDS011;56467;53.502;49.248;2023-11-21T02:14:26;7.28;;;3.95;;
69319;SDS011;56467;53.502;49.248;2023-11-21T02:16:53;7.65;;;4.15;;
69319;SDS011;56467;53.502;49.248;2023-11-21T02:19:19;6.70;;;3.58;;
69319;SDS011;56467;53.502;49.248;2023-11-21T02:21:53;8.27;;;4.30;;
69319;SDS011;56467;53.502;49.248;2023-11-21T02:24:20;7.65;;;4.20;;
69319;SDS011;56467;53.502;49.248;2023-11-21T02:26:46;8.18;;;3.70;;
69319;SDS011;56467;53.502;49.248;2023-11-21T02:29:12;7.25;;;4.00;;
69319;SDS011;56467;53.502;49.248;2023-11-21T02:31:39;6.22;;;3.60;;
69319;SDS011;56467;53.502;49.248;2023-11-21T02:34:15;6.78;;;3.97;;
69319;SDS011;56467;53.502;49.248;2023-11-21T02:36:42;7.47;;;3.70;;
69319;SDS011;56467;53.502;49.248;2023-11-21T02:39:09;6.97;;;3.80;;
69319;SDS011;56467;53.502;49.248;2023-11-21T02:41:36;7.90;;;3.78;;
69319;SDS011;56467;53.502;49.248;2023-11-21T02:44:03;7.78;;;3.83;;
69319;SDS011;56467;53.502;49.248;2023-11-21T02:46:31;6.68;;;3.47;;
69319;SDS011;56467;53.502;49.248;2023-11-21T02:48:59;6.53;;;3.45;;
69319;SDS011;56467;53.502;49.248;2023-11-21T02:51:25;6.88;;;3.30;;
69319;SDS011;56467;53.502;49.248;2023-11-21T02:53:51;7.28;;;3.50;;
69319;SDS011;56467;53.502;49.248;2023-11-21T02:56:17;6.05;;;3.33;;
69319;SDS011;56467;53.502;49.248;2023-11-21T02:58:43;7.05;;;3.38;;
69319;SDS011;56467;53.502;49.248;2023-11-21T03:01:09;6.28;;;3.45;;
69319;SDS011;56467;53.502;49.248;2023-11-21T03:03:36;5.22;;;3.08;;
69319;SDS011;56467;53.502;49.248;2023-11-21T03:06:05;6.47;;;3.30;;
69319;SDS011;56467;53.502;49.248;2023-11-21T03:08:31;5.63;;;3.20;;
69319;SDS011;56467;53.502;49.248;2023-11-21T03:10:58;5.88;;;3.20;;
69319;SDS011;56467;53.502;49.248;2023-11-21T03:13:23;5.63;;;3.25;;
69319;SDS011;56467;53.502;49.248;2023-11-21T03:15:49;5.93;;;3.10;;
69319;SDS011;56467;53.502;49.248;2023-11-21T03:18:15;6.47;;;3.40;;
69319;SDS011;56467;53.502;49.248;2023-11-21T03:20:40;5.63;;;3.10;;
69319;SDS011;56467;53.502;49.248;2023-11-21T03:23:06;5.80;;;3.17;;
69319;SDS011;56467;53.502;49.248;2023-11-21T03:25:32;6.05;;;3.20;;
69319;SDS011;56467;53.502;49.248;2023-11-21T03:27:58;6.72;;;2.83;;
69319;SDS011;56467;53.502;49.248;2023-11-21T03:30:23;6.68;;;3.13;;
69319;SDS011;56467;53.502;49.248;2023-11-21T03:32:52;5.60;;;3.13;;
69319;SDS011;56467;53.502;49.248;2023-11-21T03:35:18;5.65;;;3.15;;
69319;SDS011;56467;53.502;49.248;2023-11-21T03:37:46;5.60;;;2.90;;
69319;SDS011;56467;53.502;49.248;2023-11-21T03:40:12;6.32;;;3.28;;
69319;SDS011;56467;53.502;49.248;2023-11-21T03:42:38;5.50;;;3.13;;
69319;SDS011;56467;53.502;49.248;2023-11-21T03:45:05;6.68;;;3.22;;
69319;SDS011;56467;53.502;49.248;2023-11-21T03:47:31;4.22;;;2.60;;
69319;SDS011;56467;53.502;49.248;2023-11-21T03:49:57;4.75;;;2.58;;
69319;SDS011;56467;53.502;49.248;2023-11-21T03:52:23;5.03;;;2.72;;
69319;SDS011;56467;53.502;49.248;2023-11-21T03:54:49;4.47;;;2.78;;
69319;SDS011;56467;53.502;49.248;2023-11-21T03:57:15;5.35;;;2.70;;
69319;SDS011;56467;53.502;49.248;2023-11-21T03:59:41;4.82;;;2.60;;
69319;SDS011;56467;53.502;49.248;2023-11-21T04:02:08;5.03;;;2.70;;
69319;SDS011;56467;53.502;49.248;2023-11-21T04:04:34;5.97;;;2.85;;
69319;SDS011;56467;53.502;49.248;2023-11-21T04:07:00;5.25;;;2.85;;
69319;SDS011;56467;53.502;49.248;2023-11-21T04:09:26;4.38;;;2.50;;
69319;SDS011;56467;53.502;49.248;2023-11-21T04:11:52;5.05;;;2.50;;
69319;SDS011;56467;53.502;49.248;2023-11-21T04:14:18;4.70;;;2.40;;
69319;SDS011;56467;53.502;49.248;2023-11-21T04:16:44;5.10;;;2.58;;
69319;SDS011;56467;53.502;49.248;2023-11-21T04:19:10;5.70;;;2.78;;
69319;SDS011;56467;53.502;49.248;2023-11-21T04:21:36;4.75;;;2.50;;
69319;SDS011;56467;53.502;49.248;2023-11-21T04:24:02;4.85;;;2.40;;
69319;SDS011;56467;53.502;49.248;2023-11-21T04:26:28;4.40;;;2.40;;
69319;SDS011;56467;53.502;49.248;2023-11-21T04:28:54;4.90;;;2.67;;
69319;SDS011;56467;53.502;49.248;2023-11-21T04:31:19;4.53;;;2.63;;
69319;SDS011;56467;53.502;49.248;2023-11-21T04:33:45;3.97;;;2.17;;
69319;SDS011;56467;53.502;49.248;2023-11-21T04:36:11;4.35;;;2.25;;
69319;SDS011;56467;53.502;49.248;2023-11-21T04:38:36;4.43;;;2.60;;
69319;SDS011;56467;53.502;49.248;2023-11-21T04:41:02;4.00;;;2.20;;
69319;SDS011;56467;53.502;49.248;2023-11-21T04:43:28;4.25;;;2.47;;
69319;SDS011;56467;53.502;49.248;2023-11-21T04:45:54;3.97;;;2.33;;
69319;SDS011;56467;53.502;49.248;2023-11-21T04:48:20;4.03;;;2.30;;
69319;SDS011;56467;53.502;49.248;2023-11-21T04:50:46;3.58;;;2.30;;
69319;SDS011;56467;53.502;49.248;2023-11-21T04:53:11;4.32;;;2.40;;
69319;SDS011;56467;53.502;49.248;2023-11-21T04:55:40;4.75;;;2.50;;
69319;SDS011;56467;53.502;49.248;2023-11-21T04:58:06;4.60;;;2.30;;
69319;SDS011;56467;53.502;49.248;2023-11-21T05:00:33;4.07;;;2.38;;
69319;SDS011;56467;53.502;49.248;2023-11-21T05:02:59;3.03;;;2.08;;
69319;SDS011;56467;53.502;49.248;2023-11-21T05:05:26;3.95;;;2.30;;
69319;SDS011;56467;53.502;49.248;2023-11-21T05:07:52;3.85;;;2.28;;
69319;SDS011;56467;53.502;49.248;2023-11-21T05:10:18;3.58;;;2.10;;
69319;SDS011;56467;53.502;49.248;2023-11-21T05:12:45;3.58;;;2.25;;
69319;SDS011;56467;53.502;49.248;2023-11-21T05:15:13;2.83;;;1.95;;
69319;SDS011;56467;53.502;49.248;2023-11-21T05:17:40;3.78;;;2.00;;
69319;SDS011;56467;53.502;49.248;2023-11-21T05:20:10;3.05;;;2.00;;
69319;SDS011;56467;53.502;49.248;2023-11-21T05:22:37;2.97;;;1.98;;
69319;SDS011;56467;53.502;49.248;2023-11-21T05:25:03;3.22;;;1.90;;
69319;SDS011;56467;53.502;49.248;2023-11-21T05:27:30;2.78;;;1.88;;
69319;SDS011;56467;53.502;49.248;2023-11-21T05:29:56;3.47;;;2.00;;
69319;SDS011;56467;53.502;49.248;2023-11-21T05:32:23;3.30;;;2.03;;
69319;SDS011;56467;53.502;49.248;2023-11-21T05:34:49;3.00;;;2.05;;
69319;SDS011;56467;53.502;49.248;2023-11-21T05:37:15;3.13;;;1.80;;
69319;SDS011;56467;53.502;49.248;2023-11-21T05:39:40;3.85;;;1.90;;
69319;SDS011;56467;53.502;49.248;2023-11-21T05:42:06;3.65;;;2.00;;
69319;SDS011;56467;53.502;49.248;2023-11-21T05:44:34;3.30;;;1.90;;
69319;SDS011;56467;53.502;49.248;2023-11-21T05:47:00;2.95;;;1.75;;
69319;SDS011;56467;53.502;49.248;2023-11-21T05:49:25;4.00;;;1.90;;
69319;SDS011;56467;53.502;49.248;2023-11-21T05:51:52;2.85;;;1.85;;
69319;SDS011;56467;53.502;49.248;2023-11-21T05:54:19;3.08;;;2.05;;
69319;SDS011;56467;53.502;49.248;2023-11-21T05:56:45;3.45;;;1.88;;
69319;SDS011;56467;53.502;49.248;2023-11-21T05:59:12;3.60;;;1.90;;
69319;SDS011;56467;53.502;49.248;2023-11-21T06:01:37;3.25;;;1.80;;
69319;SDS011;56467;53.502;49.248;2023-11-21T06:04:04;4.55;;;1.80;;
69319;SDS011;56467;53.502;49.248;2023-11-21T06:06:30;2.35;;;1.60;;
69319;SDS011;56467;53.502;49.248;2023-11-21T06:08:56;2.55;;;1.73;;
69319;SDS011;56467;53.502;49.248;2023-11-21T06:11:22;3.80;;;1.92;;
69319;SDS011;56467;53.502;49.248;2023-11-21T06:13:49;2.35;;;1.73;;
69319;SDS011;56467;53.502;49.248;2023-11-21T06:16:15;2.63;;;1.60;;
69319;SDS011;56467;53.502;49.248;2023-11-21T06:18:44;3.10;;;1.55;;
69319;SDS011;56467;53.502;49.248;2023-11-21T06:21:11;2.83;;;1.70;;
69319;SDS011;56467;53.502;49.248;2023-11-21T06:23:37;2.75;;;1.70;;
69319;SDS011;56467;53.502;49.248;2023-11-21T06:26:03;2.60;;;1.70;;
69319;SDS011;56467;53.502;49.248;2023-11-21T06:28:30;2.53;;;1.60;;
69319;SDS011;56467;53.502;49.248;2023-11-21T06:30:56;2.05;;;1.60;;
69319;SDS011;56467;53.502;49.248;2023-11-21T06:33:23;2.13;;;1.50;;
69319;SDS011;56467;53.502;49.248;2023-11-21T06:35:49;2.45;;;1.60;;
69319;SDS011;56467;53.502;49.248;2023-11-21T06:38:15;2.78;;;1.60;;
69319;SDS011;56467;53.502;49.248;2023-11-21T06:40:40;2.15;;;1.50;;
69319;SDS011;56467;53.502;49.248;2023-11-21T06:43:06;2.28;;;1.50;;
69319;SDS011;56467;53.502;49.248;2023-11-21T06:45:33;2.35;;;1.67;;
69319;SDS011;56467;53.502;49.248;2023-11-21T06:47:59;2.90;;;1.70;;
69319;SDS011;56467;53.502;49.248;2023-11-21T06:50:25;2.47;;;1.70;;
69319;SDS011;56467;53.502;49.248;2023-11-21T06:52:51;2.30;;;1.50;;
69319;SDS011;56467;53.502;49.248;2023-11-21T06:55:16;2.97;;;1.70;;
69319;SDS011;56467;53.502;49.248;2023-11-21T06:57:42;2.25;;;1.67;;
69319;SDS011;56467;53.502;49.248;2023-11-21T07:00:08;2.50;;;1.70;;
69319;SDS011;56467;53.502;49.248;2023-11-21T07:02:34;2.17;;;1.60;;
69319;SDS011;56467;53.502;49.248;2023-11-21T07:05:00;3.28;;;1.80;;
69319;SDS011;56467;53.502;49.248;2023-11-21T07:07:27;1.95;;;1.55;;
69319;SDS011;56467;53.502;49.248;2023-11-21T07:09:52;3.65;;;1.80;;
69319;SDS011;56467;53.502;49.248;2023-11-21T07:12:18;2.45;;;1.80;;
69319;SDS011;56467;53.502;49.248;2023-11-21T07:14:44;3.75;;;1.88;;
69319;SDS011;56467;53.502;49.248;2023-11-21T07:17:13;2.42;;;1.77;;
69319;SDS011;56467;53.502;49.248;2023-11-21T07:19:38;2.53;;;1.90;;
69319;SDS011;56467;53.502;49.248;2023-11-21T07:22:04;3.15;;;1.80;;
69319;SDS011;56467;53.502;49.248;2023-11-21T07:24:31;2.28;;;1.80;;
69319;SDS011;56467;53.502;49.248;2023-11-21T07:26:57;2.70;;;1.70;;
69319;SDS011;56467;53.502;49.248;2023-11-21T07:29:24;2.08;;;1.63;;
69319;SDS011;56467;53.502;49.248;2023-11-21T07:31:55;2.25;;;1.80;;
69319;SDS011;56467;53.502;49.248;2023-11-21T07:34:20;2.53;;;1.80;;
69319;SDS011;56467;53.502;49.248;2023-11-21T07:36:47;3.42;;;1.77;;
69319;SDS011;56467;53.502;49.248;2023-11-21T07:39:12;3.58;;;2.00;;
69319;SDS011;56467;53.502;49.248;2023-11-21T07:41:41;2.17;;;1.65;;
69319;SDS011;56467;53.502;49.248;2023-11-21T07:44:13;3.75;;;2.00;;
69319;SDS011;56467;53.502;49.248;2023-11-21T07:46:40;2.88;;;1.95;;
69319;SDS011;56467;53.502;49.248;2023-11-21T07:49:06;2.90;;;1.90;;
69319;SDS011;56467;53.502;49.248;2023-11-21T07:51:32;2.13;;;1.73;;
69319;SDS011;56467;53.502;49.248;2023-11-21T07:53:58;2.55;;;1.90;;
69319;SDS011;56467;53.502;49.248;2023-11-21T07:56:23;2.40;;;1.90;;
69319;SDS011;56467;53.502;49.248;2023-11-21T07:58:49;2.35;;;1.77;;
69319;SDS011;56467;53.502;49.248;2023-11-21T08:01:15;3.35;;;2.03;;
69319;SDS011;56467;53.502;49.248;2023-11-21T08:03:40;3.03;;;2.00;;
69319;SDS011;56467;53.502;49.248;2023-11-21T08:06:06;2.63;;;1.80;;
69319;SDS011;56467;53.502;49.248;2023-11-21T08:08:32;3.00;;;2.15;;
69319;SDS011;56467;53.502;49.248;2023-11-21T08:10:58;2.75;;;1.80;;
69319;SDS011;56467;53.502;49.248;2023-11-21T08:13:26;2.80;;;2.10;;
69319;SDS011;56467;53.502;49.248;2023-11-21T08:15:57;3.03;;;2.20;;
69319;SDS011;56467;53.502;49.248;2023-11-21T08:18:30;4.20;;;2.17;;
69319;SDS011;56467;53.502;49.248;2023-11-21T08:20:56;2.97;;;2.00;;
69319;SDS011;56467;53.502;49.248;2023-11-21T08:23:22;3.42;;;2.20;;
69319;SDS011;56467;53.502;49.248;2023-11-21T08:25:51;2.35;;;2.00;;
69319;SDS011;56467;53.502;49.248;2023-11-21T08:28:17;3.78;;;2.38;;
69319;SDS011;56467;53.502;49.248;2023-11-21T08:30:43;4.03;;;2.13;;
69319;SDS011;56467;53.502;49.248;2023-11-21T08:33:09;2.78;;;2.10;;
69319;SDS011;56467;53.502;49.248;2023-11-21T08:35:36;3.80;;;2.15;;
69319;SDS011;56467;53.502;49.248;2023-11-21T08:38:03;3.88;;;2.38;;
69319;SDS011;56467;53.502;49.248;2023-11-21T08:40:29;2.97;;;2.20;;
69319;SDS011;56467;53.502;49.248;2023-11-21T08:42:55;4.18;;;2.42;;
69319;SDS011;56467;53.502;49.248;2023-11-21T08:45:21;3.95;;;2.20;;
69319;SDS011;56467;53.502;49.248;2023-11-21T08:47:47;5.03;;;2.30;;
69319;SDS011;56467;53.502;49.248;2023-11-21T08:50:13;3.38;;;2.17;;
69319;SDS011;56467;53.502;49.248;2023-11-21T08:52:40;6.35;;;2.33;;
69319;SDS011;56467;53.502;49.248;2023-11-21T08:55:10;3.97;;;2.47;;
69319;SDS011;56467;53.502;49.248;2023-11-21T08:57:40;2.33;;;2.10;;
69319;SDS011;56467;53.502;49.248;2023-11-21T09:00:06;3.90;;;2.20;;
69319;SDS011;56467;53.502;49.248;2023-11-21T09:02:36;3.67;;;2.30;;
69319;SDS011;56467;53.502;49.248;2023-11-21T09:05:05;3.72;;;2.13;;
69319;SDS011;56467;53.502;49.248;2023-11-21T09:07:32;3.75;;;2.10;;
69319;SDS011;56467;53.502;49.248;2023-11-21T09:09:58;3.28;;;2.15;;
69319;SDS011;56467;53.502;49.248;2023-11-21T09:12:24;4.15;;;2.20;;
69319;SDS011;56467;53.502;49.248;2023-11-21T09:14:52;3.72;;;2.40;;
69319;SDS011;56467;53.502;49.248;2023-11-21T09:17:18;4.20;;;2.25;;
69319;SDS011;56467;53.502;49.248;2023-11-21T09:19:44;2.85;;;2.20;;
69319;SDS011;56467;53.502;49.248;2023-11-21T09:22:12;3.75;;;2.20;;
69319;SDS011;56467;53.502;49.248;2023-11-21T09:24:38;4.80;;;2.80;;
69319;SDS011;56467;53.502;49.248;2023-11-21T09:27:03;3.67;;;2.30;;
69319;SDS011;56467;53.502;49.248;2023-11-21T09:29:30;4.10;;;2.10;;
69319;SDS011;56467;53.502;49.248;2023-11-21T09:31:57;3.22;;;2.22;;
69319;SDS011;56467;53.502;49.248;2023-11-21T09:34:24;2.80;;;2.30;;
69319;SDS011;56467;53.502;49.248;2023-11-21T09:36:51;3.08;;;2.35;;
69319;SDS011;56467;53.502;49.248;2023-11-21T09:39:17;4.18;;;2.30;;
69319;SDS011;56467;53.502;49.248;2023-11-21T09:41:52;2.97;;;2.30;;
69319;SDS011;56467;53.502;49.248;2023-11-21T09:44:29;3.95;;;2.50;;
69319;SDS011;56467;53.502;49.248;2023-11-21T09:47:00;4.68;;;2.50;;
69319;SDS011;56467;53.502;49.248;2023-11-21T09:49:28;4.45;;;2.45;;
69319;SDS011;56467;53.502;49.248;2023-11-21T09:51:57;3.33;;;2.40;;
69319;SDS011;56467;53.502;49.248;2023-11-21T09:54:28;3.40;;;2.10;;
69319;SDS011;56467;53.502;49.248;2023-11-21T09:56:57;3.10;;;2.45;;
69319;SDS011;56467;53.502;49.248;2023-11-21T09:59:24;4.45;;;2.47;;
69319;SDS011;56467;53.502;49.248;2023-11-21T10:01:57;3.53;;;2.50;;
69319;SDS011;56467;53.502;49.248;2023-11-21T10:04:23;3.67;;;2.35;;
69319;SDS011;56467;53.502;49.248;2023-11-21T10:06:52;4.93;;;2.50;;
69319;SDS011;56467;53.502;49.248;2023-11-21T10:09:18;3.40;;;2.63;;
69319;SDS011;56467;53.502;49.248;2023-11-21T10:11:46;4.45;;;2.80;;
69319;SDS011;56467;53.502;49.248;2023-11-21T10:14:14;4.95;;;3.10;;
69319;SDS011;56467;53.502;49.248;2023-11-21T10:16:43;5.30;;;3.10;;
69319;SDS011;56467;53.502;49.248;2023-11-21T10:19:12;5.20;;;3.25;;
69319;SDS011;56467;53.502;49.248;2023-11-21T10:21:41;5.43;;;3.30;;
69319;SDS011;56467;53.502;49.248;2023-11-21T10:24:07;7.28;;;3.60;;
69319;SDS011;56467;53.502;49.248;2023-11-21T10:26:33;6.35;;;3.60;;
69319;SDS011;56467;53.502;49.248;2023-11-21T10:29:00;7.18;;;3.67;;
69319;SDS011;56467;53.502;49.248;2023-11-21T10:31:29;5.05;;;3.25;;
69319;SDS011;56467;53.502;49.248;2023-11-21T10:36:44;6.45;;;3.88;;
69319;SDS011;56467;53.502;49.248;2023-11-21T10:39:13;8.95;;;3.92;;
69319;SDS011;56467;53.502;49.248;2023-11-21T10:41:43;6.50;;;3.70;;
69319;SDS011;56467;53.502;49.248;2023-11-21T10:44:11;6.35;;;3.65;;
69319;SDS011;56467;53.502;49.248;2023-11-21T10:46:39;6.18;;;3.95;;
69319;SDS011;56467;53.502;49.248;2023-11-21T10:49:07;6.18;;;3.75;;
69319;SDS011;56467;53.502;49.248;2023-11-21T10:51:34;7.75;;;4.13;;
69319;SDS011;56467;53.502;49.248;2023-11-21T10:54:00;5.60;;;3.55;;
69319;SDS011;56467;53.502;49.248;2023-11-21T10:56:25;6.93;;;4.10;;
69319;SDS011;56467;53.502;49.248;2023-11-21T10:58:55;7.75;;;4.20;;
69319;SDS011;56467;53.502;49.248;2023-11-21T11:01:22;8.75;;;4.03;;
69319;SDS011;56467;53.502;49.248;2023-11-21T11:03:51;6.65;;;4.00;;
69319;SDS011;56467;53.502;49.248;2023-11-21T11:06:19;5.82;;;3.72;;
69319;SDS011;56467;53.502;49.248;2023-11-21T11:08:46;6.75;;;4.15;;
69319;SDS011;56467;53.502;49.248;2023-11-21T11:11:14;6.05;;;3.85;;
69319;SDS011;56467;53.502;49.248;2023-11-21T11:13:42;6.63;;;4.25;;
69319;SDS011;56467;53.502;49.248;2023-11-21T11:16:10;7.47;;;4.30;;
69319;SDS011;56467;53.502;49.248;2023-11-21T11:18:37;7.32;;;4.35;;
69319;SDS011;56467;53.502;49.248;2023-11-21T11:21:26;7.45;;;4.47;;
69319;SDS011;56467;53.502;49.248;2023-11-21T11:24:05;7.85;;;4.40;;
69319;SDS011;56467;53.502;49.248;2023-11-21T11:26:56;6.95;;;4.38;;
69319;SDS011;56467;53.502;49.248;2023-11-21T11:29:27;7.13;;;4.57;;
69319;SDS011;56467;53.502;49.248;2023-11-21T11:32:13;7.50;;;4.70;;
69319;SDS011;56467;53.502;49.248;2023-11-21T11:34:48;7.22;;;4.78;;
69319;SDS011;56467;53.502;49.248;2023-11-21T11:37:18;8.55;;;4.78;;
69319;SDS011;56467;53.502;49.248;2023-11-21T11:39:45;7.53;;;4.40;;
69319;SDS011;56467;53.502;49.248;2023-11-21T11:42:14;7.07;;;4.68;;
69319;SDS011;56467;53.502;49.248;2023-11-21T11:47:24;7.93;;;4.57;;
69319;SDS011;56467;53.502;49.248;2023-11-21T11:49:58;8.27;;;4.78;;
69319;SDS011;56467;53.502;49.248;2023-11-21T11:52:42;7.43;;;4.65;;
69319;SDS011;56467;53.502;49.248;2023-11-21T11:55:10;8.10;;;5.03;;
69319;SDS011;56467;53.502;49.248;2023-11-21T11:57:37;7.57;;;4.75;;
69319;SDS011;56467;53.502;49.248;2023-11-21T12:02:47;7.65;;;4.80;;
69319;SDS011;56467;53.502;49.248;2023-11-21T12:05:17;6.85;;;4.75;;
69319;SDS011;56467;53.502;49.248;2023-11-21T12:07:48;7.10;;;4.60;;
69319;SDS011;56467;53.502;49.248;2023-11-21T12:10:16;7.50;;;4.80;;
69319;SDS011;56467;53.502;49.248;2023-11-21T12:12:44;8.30;;;4.80;;
69319;SDS011;56467;53.502;49.248;2023-11-21T12:15:11;6.38;;;4.57;;
69319;SDS011;56467;53.502;49.248;2023-11-21T12:17:38;7.30;;;4.75;;
69319;SDS011;56467;53.502;49.248;2023-11-21T12:20:04;8.55;;;4.90;;
69319;SDS011;56467;53.502;49.248;2023-11-21T12:22:46;7.75;;;5.18;;
69319;SDS011;56467;53.502;49.248;2023-11-21T12:25:17;7.75;;;4.63;;
69319;SDS011;56467;53.502;49.248;2023-11-21T12:27:47;6.30;;;4.30;;
69319;SDS011;56467;53.502;49.248;2023-11-21T12:30:20;7.13;;;4.80;;
69319;SDS011;56467;53.502;49.248;2023-11-21T12:32:51;6.20;;;4.35;;
69319;SDS011;56467;53.502;49.248;2023-11-21T12:35:25;7.22;;;4.65;;
69319;SDS011;56467;53.502;49.248;2023-11-21T12:37:51;7.53;;;4.50;;
69319;SDS011;56467;53.502;49.248;2023-11-21T12:40:19;6.10;;;4.30;;
69319;SDS011;56467;53.502;49.248;2023-11-21T12:42:46;6.88;;;4.60;;
69319;SDS011;56467;53.502;49.248;2023-11-21T12:47:55;6.57;;;4.03;;
69319;SDS011;56467;53.502;49.248;2023-11-21T12:50:25;6.55;;;4.43;;
69319;SDS011;56467;53.502;49.248;2023-11-21T12:52:54;5.68;;;4.13;;
69319;SDS011;56467;53.502;49.248;2023-11-21T12:55:23;5.82;;;3.90;;
69319;SDS011;56467;53.502;49.248;2023-11-21T12:57:54;6.00;;;3.90;;
69319;SDS011;56467;53.502;49.248;2023-11-21T13:00:53;6.13;;;4.13;;
69319;SDS011;56467;53.502;49.248;2023-11-21T13:03:13;5.97;;;3.90;;
69319;SDS011;56467;53.502;49.248;2023-11-21T13:05:45;6.40;;;4.30;;
69319;SDS011;56467;53.502;49.248;2023-11-21T13:08:19;5.82;;;3.90;;
69319;SDS011;56467;53.502;49.248;2023-11-21T13:10:50;5.35;;;3.80;;
69319;SDS011;56467;53.502;49.248;2023-11-21T13:13:20;5.70;;;3.75;;
69319;SDS011;56467;53.502;49.248;2023-11-21T13:16:02;6.18;;;3.83;;
69319;SDS011;56467;53.502;49.248;2023-11-21T13:18:33;7.18;;;4.22;;
69319;SDS011;56467;53.502;49.248;2023-11-21T13:21:01;5.70;;;3.80;;
69319;SDS011;56467;53.502;49.248;2023-11-21T13:23:38;5.80;;;3.78;;
69319;SDS011;56467;53.502;49.248;2023-11-21T13:26:06;4.93;;;3.30;;
69319;SDS011;56467;53.502;49.248;2023-11-21T13:28:32;4.93;;;3.42;;
69319;SDS011;56467;53.502;49.248;2023-11-21T13:30:59;4.88;;;3.25;;
69319;SDS011;56467;53.502;49.248;2023-11-21T13:33:29;4.13;;;3.00;;
69319;SDS011;56467;53.502;49.248;2023-11-21T13:35:55;6.25;;;3.33;;
69319;SDS011;56467;53.502;49.248;2023-11-21T13:38:22;4.75;;;3.40;;
69319;SDS011;56467;53.502;49.248;2023-11-21T13:40:51;5.30;;;3.25;;
69319;SDS011;56467;53.502;49.248;2023-11-21T13:43:22;4.38;;;3.10;;
69319;SDS011;56467;53.502;49.248;2023-11-21T13:45:51;5.15;;;3.08;;
69319;SDS011;56467;53.502;49.248;2023-11-21T13:48:37;3.72;;;2.75;;
69319;SDS011;56467;53.502;49.248;2023-11-21T13:51:10;3.78;;;2.60;;
69319;SDS011;56467;53.502;49.248;2023-11-21T13:53:45;3.75;;;2.75;;
69319;SDS011;56467;53.502;49.248;2023-11-21T13:56:14;2.88;;;2.35;;
69319;SDS011;56467;53.502;49.248;2023-11-21T13:58:48;3.45;;;2.33;;
69319;SDS011;56467;53.502;49.248;2023-11-21T14:01:22;3.20;;;2.47;;
69319;SDS011;56467;53.502;49.248;2023-11-21T14:03:48;3.42;;;2.45;;
69319;SDS011;56467;53.502;49.248;2023-11-21T14:08:52;3.28;;;2.25;;
69319;SDS011;56467;53.502;49.248;2023-11-21T14:11:21;3.25;;;2.22;;
69319;SDS011;56467;53.502;49.248;2023-11-21T14:13:47;2.80;;;2.17;;
69319;SDS011;56467;53.502;49.248;2023-11-21T14:16:14;3.15;;;2.25;;
69319;SDS011;56467;53.502;49.248;2023-11-21T14:18:43;2.78;;;2.10;;
69319;SDS011;56467;53.502;49.248;2023-11-21T14:21:23;2.30;;;2.00;;
69319;SDS011;56467;53.502;49.248;2023-11-21T14:23:49;2.38;;;1.95;;
69319;SDS011;56467;53.502;49.248;2023-11-21T14:26:15;2.53;;;1.80;;
69319;SDS011;56467;53.502;49.248;2023-11-21T14:28:41;2.90;;;2.00;;
69319;SDS011;56467;53.502;49.248;2023-11-21T14:31:08;2.53;;;1.80;;
69319;SDS011;56467;53.502;49.248;2023-11-21T14:33:39;2.78;;;1.98;;
69319;SDS011;56467;53.502;49.248;2023-11-21T14:36:05;1.70;;;1.60;;
69319;SDS011;56467;53.502;49.248;2023-11-21T14:38:35;2.03;;;1.60;;
69319;SDS011;56467;53.502;49.248;2023-11-21T14:41:02;2.30;;;1.80;;
69319;SDS011;56467;53.502;49.248;2023-11-21T14:43:29;2.38;;;1.65;;
69319;SDS011;56467;53.502;49.248;2023-11-21T14:45:59;2.38;;;1.70;;
69319;SDS011;56467;53.502;49.248;2023-11-21T14:48:25;2.08;;;1.80;;
69319;SDS011;56467;53.502;49.248;2023-11-21T14:51:12;3.38;;;1.70;;